Central Oregon RPC :: LAKEVIEW, OR B

liberation: 2020-05-31  08:00     latitude: 42.184008     longitude: -120.572669 113 birds
# LOFT PRING MILES ARRIVAL SPEED ToWin
1 ROCKY TOP AU19-CORP-4477 144.546 2020-05-31 10:41:03.875 1579.501 00:00:00
2 ROCKY TOP AU19-CORP-4405 144.546 2020-05-31 10:41:05.352 1579.259 00:00:01
3 RUETER FAMILY LOFT AU17-CORP-0513 179.062 2020-05-31 11:19:58.316 1575.970 00:00:27
4 RUETER FAMILY LOFT AU18-CORP-2721 179.062 2020-05-31 11:19:59.040 1575.875 00:00:28
5 RUETER FAMILY LOFT AU19-CORP-5331 179.062 2020-05-31 11:19:59.482 1575.817 00:00:28
6 ROCKY TOP AU16-CORP-7143 144.546 2020-05-31 10:41:26.583 1575.798 00:00:23
7 ROCKY TOP AU19-CORP-4400 144.546 2020-05-31 10:41:27.713 1575.614 00:00:24
8 RUETER FAMILY LOFT AU19-CORP-5432 179.062 2020-05-31 11:20:04.153 1575.204 00:00:33
9 RUETER FAMILY LOFT AU19-CORP-5280 179.062 2020-05-31 11:20:06.516 1574.894 00:00:35
10 ROCKY TOP AU19-JEDD-0505 144.546 2020-05-31 10:41:34.537 1574.505 00:00:31
11 ROCKY TOP AU16-CORP-7706 144.546 2020-05-31 10:41:38.661 1573.835 00:00:35
12 ROCKY TOP AU19-CORP-4443 144.546 2020-05-31 10:41:39.262 1573.738 00:00:35
13 ROCKY TOP AU19-CORP-4442 144.546 2020-05-31 10:41:43.685 1573.021 00:00:40
14 ROCKY TOP AU19-CORP-4473 144.546 2020-05-31 10:41:55.611 1571.090 00:00:52
15 RUETER FAMILY LOFT AU18-CORP-2777 179.062 2020-05-31 11:20:40.808 1570.408 00:01:09
16 ROCKY TOP AU19-JEDD-0507 144.546 2020-05-31 10:42:07.532 1569.164 00:01:04
17 ROCKY TOP AU18-CORP-3371 144.546 2020-05-31 10:42:10.317 1568.715 00:01:06
18 RUETER FAMILY LOFT AU17-CORP-0521 179.062 2020-05-31 11:21:07.248 1566.968 00:01:36
19 RUETER FAMILY LOFT AU19-CORP-5344 179.062 2020-05-31 11:21:09.520 1566.673 00:01:38
20 RUETER FAMILY LOFT AU19-CORP-5445 179.062 2020-05-31 11:21:30.025 1564.015 00:01:59
21 RUETER FAMILY LOFT AU19-CORP-5435 179.062 2020-05-31 11:21:33.539 1563.561 00:02:02
22 RUETER FAMILY LOFT AU19-CORP-5335 179.062 2020-05-31 11:21:36.528 1563.175 00:02:05
23 ROCKY TOP AU19-CORP-4474 144.546 2020-05-31 10:43:25.742 1556.649 00:02:22
24 ROCKY TOP AU18-CORP-3353 144.546 2020-05-31 10:43:33.783 1555.373 00:02:30
25 RUETER FAMILY LOFT AU18-CORP-2744 179.062 2020-05-31 11:22:58.313 1552.677 00:03:27
26 RUETER FAMILY LOFT AU19-CORP-5393 179.062 2020-05-31 11:22:59.138 1552.572 00:03:28
27 RUETER FAMILY LOFT AU19-CORP-5477 179.062 2020-05-31 11:23:08.843 1551.336 00:03:37
28 RUETER FAMILY LOFT AU19-CORP-5289 179.062 2020-05-31 11:23:39.094 1547.495 00:04:08
29 RUETER FAMILY LOFT AU17-CORP-0449 179.062 2020-05-31 11:23:40.366 1547.334 00:04:09
30 AMERICAN LOFT AU19-CORP-4706 149.238 2020-05-31 10:49:52.394 1546.207 00:03:35
31 RUETER FAMILY LOFT AU19-CORP-5463 179.062 2020-05-31 11:23:59.595 1544.903 00:04:28
32 HENDRICKSON FAMILY LOFT AU18-CORP-4012 149.32 2020-05-31 10:50:06.731 1544.883 00:03:44
33 HENDRICKSON FAMILY LOFT AU18-CORP-4034 149.32 2020-05-31 10:50:07.954 1544.698 00:03:45
34 HENDRICKSON FAMILY LOFT AU19-CORP-4372 149.32 2020-05-31 10:50:08.328 1544.641 00:03:45
35 RUETER FAMILY LOFT AU18-CORP-2684 179.062 2020-05-31 11:25:08.885 1536.206 00:05:37
36 TIM GRAVES AU19-CORP-4220 143.361 2020-05-31 10:44:19.197 1535.516 00:04:35
37 TIM GRAVES AU17-FHI-0202 143.361 2020-05-31 10:44:23.034 1534.919 00:04:38
38 ROCKY TOP AU18-CORP-3354 144.546 2020-05-31 10:46:09.116 1531.138 00:05:05
39 ROCKY TOP AU17-CORP-0798 144.546 2020-05-31 10:46:14.180 1530.361 00:05:10
40 RUETER FAMILY LOFT AU19-CORP-5367 179.062 2020-05-31 11:25:56.664 1530.266 00:06:25
41 RUETER FAMILY LOFT AU19-CORP-5405 179.062 2020-05-31 11:26:03.249 1529.451 00:06:32
42 RUETER FAMILY LOFT AU18-CORP-2774 179.062 2020-05-31 11:26:10.415 1528.565 00:06:39
43 AMERICAN LOFT AU19-CORP-4673 149.238 2020-05-31 10:52:00.285 1527.046 00:05:43
44 ROCKY TOP AU18-CORP-3351 144.546 2020-05-31 10:46:37.699 1526.761 00:05:34
45 RUETER FAMILY LOFT AU19-CORP-5342 179.062 2020-05-31 11:26:25.792 1526.667 00:06:54
46 HENDRICKSON FAMILY LOFT AU19-CORP-4360 149.32 2020-05-31 10:52:28.052 1523.785 00:06:05
47 RUETER FAMILY LOFT AU19-CORP-5408 179.062 2020-05-31 11:26:49.696 1523.727 00:07:18
48 RUETER FAMILY LOFT AU18-CORP-2651 179.062 2020-05-31 11:26:52.315 1523.405 00:07:21
49 RUETER FAMILY LOFT AU17-CORP-0425 179.062 2020-05-31 11:26:54.391 1523.150 00:07:23
50 HENDRICKSON FAMILY LOFT AU19-CORP-4385 149.32 2020-05-31 10:52:35.128 1522.744 00:06:12
51 AMERICAN LOFT AU18-CORP-2549 149.238 2020-05-31 10:52:37.282 1521.592 00:06:20
52 TOPIGEONUSA AU19-CORP-5124 151.225 2020-05-31 10:55:06.068 1520.010 00:06:36
53 RUETER FAMILY LOFT AU19-CORP-5438 179.062 2020-05-31 11:27:21.168 1519.872 00:07:50
54 ROCKY TOP AU16-CORP-7701 144.546 2020-05-31 10:47:36.584 1517.821 00:06:33
55 ROCKY TOP AU17-OTC-0317 144.546 2020-05-31 10:47:36.935 1517.768 00:06:33
56 ROCKY TOP AU18-CORP-3349 144.546 2020-05-31 10:47:38.814 1517.485 00:06:35
57 RUETER FAMILY LOFT AU19-CORP-5458 179.062 2020-05-31 11:27:41.539 1517.388 00:08:10
58 RUETER FAMILY LOFT AU19-CORP-5339 179.062 2020-05-31 11:27:43.158 1517.191 00:08:12
59 ROCKY TOP AU19-ARPU-29012 144.546 2020-05-31 10:47:41.471 1517.084 00:06:38
60 TOPIGEONUSA AU18-CORP-4253 151.225 2020-05-31 10:55:45.697 1514.298 00:07:15
61 TOPIGEONUSA AU14-CORP-1078 151.225 2020-05-31 10:55:47.791 1513.997 00:07:17
62 ROCKY TOP AU18-CORP-3300 144.546 2020-05-31 10:48:02.042 1513.989 00:06:58
63 ROCKY TOP AU19-CORP-4464 144.546 2020-05-31 10:48:02.670 1513.894 00:06:59
64 STEELE LOFT AU15-CORP-3873 151.458 2020-05-31 10:56:14.569 1512.491 00:07:29
65 STEELE LOFT AU19-JEDD-1973 151.458 2020-05-31 10:56:42.518 1508.504 00:07:57
66 TOPIGEONUSA AU17-VLJ-0728 151.225 2020-05-31 10:56:52.833 1504.719 00:08:22
67 TOPIGEONUSA AU17-CAPT-0054 151.225 2020-05-31 10:56:53.895 1504.568 00:08:24
68 ROCKY TOP AU18-CORP-3310 144.546 2020-05-31 10:49:10.767 1503.738 00:08:07
69 ROCKY TOP AU19-CORP-4435 144.546 2020-05-31 10:49:13.734 1503.299 00:08:10
70 RUETER FAMILY LOFT AU18-CORP-2643 179.062 2020-05-31 11:29:55.905 1501.201 00:10:24
71 RUETER FAMILY LOFT AU17-CORP-0589 179.062 2020-05-31 11:29:57.592 1501.000 00:10:26
72 RUETER FAMILY LOFT AU19-CORP-5317 179.062 2020-05-31 11:30:01.294 1500.559 00:10:30
73 RUETER FAMILY LOFT AU19-CORP-5419 179.062 2020-05-31 11:30:03.297 1500.321 00:10:32
74 RUETER FAMILY LOFT AU18-CORP-2678 179.062 2020-05-31 11:30:08.443 1499.708 00:10:37
75 STEELE LOFT AU17-PNW-5212 151.458 2020-05-31 10:58:02.921 1497.151 00:09:17
76 STEELE LOFT AU19-AVI-19525 151.458 2020-05-31 10:58:25.696 1493.966 00:09:40
77 STEELE LOFT AU16-MTH-11012 151.458 2020-05-31 10:58:34.022 1492.805 00:09:48
78 RUETER FAMILY LOFT AU18-CORP-2626 179.062 2020-05-31 11:31:11.386 1492.259 00:11:40
79 TIM GRAVES AU17-CORP-0834 143.361 2020-05-31 10:49:06.688 1492.010 00:09:22
80 TIM GRAVES AU19-CORP-4211 143.361 2020-05-31 10:49:50.043 1485.662 00:10:05
81 TOPIGEONUSA AU19-CORP-5136 151.225 2020-05-31 10:59:21.645 1483.912 00:10:51
82 ROCKY TOP AU19-CORP-4490 144.546 2020-05-31 10:51:33.921 1482.826 00:10:30
83 TIM GRAVES AU13-TCW-3849 143.361 2020-05-31 10:50:11.466 1482.545 00:10:27
84 ROCKY TOP AU18-CORP-3343 144.546 2020-05-31 10:51:56.356 1479.602 00:10:52
85 ROCKY TOP AU18-CORP-3313 144.546 2020-05-31 10:52:04.305 1478.462 00:11:00
86 ROCKY TOP AU19-CORP-4454 144.546 2020-05-31 10:52:07.346 1478.027 00:11:03
87 AMERICAN LOFT AU18-CORP-2550 149.238 2020-05-31 10:58:32.721 1471.106 00:12:15
88 AMERICAN LOFT AU19-CORP-4647 149.238 2020-05-31 10:58:34.213 1470.902 00:12:17
89 TIM GRAVES AU15-AA-14507 143.361 2020-05-31 10:51:33.514 1470.728 00:11:49
90 TIM GRAVES AU17-FHI-1014 143.361 2020-05-31 10:51:35.111 1470.500 00:11:50
91 TIM GRAVES AU16-AUB-0602 143.361 2020-05-31 10:51:44.324 1469.185 00:12:00
92 TIM GRAVES AU16-CORP-6702 143.361 2020-05-31 10:51:55.543 1467.587 00:12:11
93 RUETER FAMILY LOFT AU18-CORP-2728 179.062 2020-05-31 11:34:45.870 1467.420 00:15:14
94 RUETER FAMILY LOFT AU18-CORP-2696 179.062 2020-05-31 11:34:52.855 1466.625 00:15:21
95 AMERICAN LOFT AU19-CORP-4652 149.238 2020-05-31 11:00:43.659 1453.343 00:14:26
96 HENDRICKSON FAMILY LOFT AU18-CORP-4046 149.32 2020-05-31 11:01:19.629 1449.333 00:14:57
97 STEELE LOFT AU14-CORP-1062 151.458 2020-05-31 11:04:01.489 1448.531 00:15:16
98 HENDRICKSON FAMILY LOFT AU18-CORP-4006 149.32 2020-05-31 11:01:32.166 1447.665 00:15:09
99 RUETER FAMILY LOFT AU17-CORP-0419 179.062 2020-05-31 11:39:30.949 1435.659 00:19:59
100 RUETER FAMILY LOFT AU19-CORP-5453 179.062 2020-05-31 11:40:09.626 1431.455 00:20:38
101 HENDRICKSON FAMILY LOFT AU19-CORP-4354 149.32 2020-05-31 11:04:32.818 1424.046 00:18:10
102 ROCKY TOP AU18-CORP-3365 144.546 2020-05-31 10:59:20.596 1418.518 00:18:17
103 TIM GRAVES AU19-CORP-4207 143.361 2020-05-31 10:59:25.292 1406.275 00:19:41
104 TIM GRAVES AU17-CORP-2034 143.361 2020-05-31 11:02:33.983 1382.051 00:22:49
105 HENDRICKSON FAMILY LOFT AU19-CORP-4366 149.32 2020-05-31 11:23:01.819 1294.405 00:36:39
106 RUETER FAMILY LOFT AU19-CORP-5455 179.062 2020-05-31 12:17:51.031 1222.219 00:58:20
107 RUETER FAMILY LOFT AU18-CORP-2726 179.062 2020-05-31 12:40:06.664 1125.089 01:20:35
108 TIM GRAVES AU19-CORP-4223 143.361 2020-05-31 11:50:58.591 1092.388 01:11:14
109 TIM GRAVES AU17-CORP-2022 143.361 2020-05-31 12:11:30.936 1003.182 01:31:46
110 RUETER FAMILY LOFT AU18-CORP-2635 179.062 2020-05-31 19:11:16.580 469.478 07:51:45
111 TIM GRAVES AU19-CORP-4209 143.361 2020-05-31 18:54:28.463 385.525 08:14:44
TIM GRAVES AU14-CORP-1963 0 0000-00-00 00:00:00.000 0.000 00:00:00
TOPIGEONUSA AU19-CORP-5128 0 0000-00-00 00:00:00.000 0.000 00:00:00